Time;durP1;ratioP1;P1;durP2;ratioP2;P2;SDS_P1;SDS_P2;PMS_P1;PMS_P2;Temp;Humidity;BMP_temperature;BMP_pressure;BME280_temperature;BME280_humidity;BME280_pressure;Samples;Min_cycle;Max_cycle;Signal;HPM_P1;HPM_P2
2022/04/10 00:00:05;;;;;;;;;;;;;;;12.13;41.82;99011.88;4492130;31;33591;-67
2022/04/10 00:02:40;;;;;;;;;;;;;;;12.08;42.35;99012.31;4475119;32;34257;-67
2022/04/10 00:05:08;;;;;;;;;;;;;;;12.02;42.92;99004.00;4486540;31;33333;-69
2022/04/10 00:07:37;;;;;;;;;;;;;;;12.18;43.13;99015.00;4494478;31;32890;-70
2022/04/10 00:10:06;;;;;;;;;;;;;;;12.35;41.96;99005.38;4492626;31;32134;-65
2022/04/10 00:12:35;;;;;;;;;;;;;;;12.41;41.67;99002.09;4496396;31;34161;-65
2022/04/10 00:15:03;;;;;;;;;;;;;;;12.39;42.73;99011.28;4487158;31;34029;-66
2022/04/10 00:17:32;;;;;;;;;;;;;;;12.45;42.14;99002.66;4471539;32;31813;-66
2022/04/10 00:20:01;;;;;;;;;;;;;;;12.19;43.69;98989.84;4483831;31;32926;-66
2022/04/10 00:22:32;;;;;;;;;;;;;;;11.57;43.15;98996.47;4484899;31;33013;-65
2022/04/10 00:25:01;;;;;;;;;;;;;;;11.97;43.21;98990.16;4487552;31;35818;-65
2022/04/10 00:27:33;;;;;;;;;;;;;;;11.91;42.93;98986.22;4486495;31;34327;-66
2022/04/10 00:30:03;;;;;;;;;;;;;;;11.33;44.22;98995.03;4489353;31;34280;-67
2022/04/10 00:32:34;;;;;;;;;;;;;;;11.40;44.05;98995.31;4492348;31;33652;-67
2022/04/10 00:35:05;;;;;;;;;;;;;;;11.30;44.07;98999.78;4482609;31;33061;-67
2022/04/10 00:37:35;;;;;;;;;;;;;;;11.41;44.58;99003.22;4495911;31;34991;-68
2022/04/10 00:40:06;;;;;;;;;;;;;;;11.46;43.58;98999.25;4487753;31;32313;-67
2022/04/10 00:42:36;;;;;;;;;;;;;;;11.68;43.74;99000.84;4483671;32;33493;-67
2022/04/10 00:45:06;;;;;;;;;;;;;;;11.65;43.61;99010.87;4475947;31;33665;-67
2022/04/10 00:47:34;;;;;;;;;;;;;;;11.31;45.33;99007.72;4483070;32;35213;-68
2022/04/10 00:50:06;;;;;;;;;;;;;;;11.18;45.56;99007.12;4490754;31;32103;-67
2022/04/10 00:52:35;;;;;;;;;;;;;;;11.17;45.93;99008.94;4482661;32;33398;-68
2022/04/10 00:55:05;;;;;;;;;;;;;;;10.53;46.42;99011.03;4470908;31;33831;-67
2022/04/10 00:57:35;;;;;;;;;;;;;;;10.57;47.48;99025.87;4485913;31;34487;-67
2022/04/10 01:00:06;;;;;;;;;;;;;;;10.56;46.01;99032.19;4480176;31;33209;-67
2022/04/10 01:02:36;;;;;;;;;;;;;;;11.05;46.14;99034.13;4493080;31;31873;-67
2022/04/10 01:05:06;;;;;;;;;;;;;;;10.29;47.64;99036.25;4496366;31;33087;-68
2022/04/10 01:07:35;;;;;;;;;;;;;;;10.81;47.10;99039.78;4484392;31;33239;-69
2022/04/10 01:10:06;;;;;;;;;;;;;;;10.65;45.70;99050.97;4484303;31;35487;-67
2022/04/10 01:12:36;;;;;;;;;;;;;;;10.58;47.08;99054.31;4490135;31;34021;-69
2022/04/10 01:15:06;;;;;;;;;;;;;;;10.72;46.80;99052.16;4494644;31;34194;-68
2022/04/10 01:17:35;;;;;;;;;;;;;;;10.76;47.40;99051.91;4472922;32;32544;-68
2022/04/10 01:20:05;;;;;;;;;;;;;;;10.96;46.38;99046.50;4473314;31;32099;-67
2022/04/10 01:22:34;;;;;;;;;;;;;;;10.52;47.89;99057.50;4501163;31;32618;-70
2022/04/10 01:25:05;;;;;;;;;;;;;;;10.26;48.36;99060.56;4502385;31;34479;-68
2022/04/10 01:27:37;;;;;;;;;;;;;;;11.07;46.02;99058.09;4490202;31;34342;-68
2022/04/10 01:30:08;;;;;;;;;;;;;;;10.18;47.44;99053.16;4488343;31;32804;-64
2022/04/10 01:32:37;;;;;;;;;;;;;;;10.30;48.71;99066.50;4487524;31;33057;-64
2022/04/10 01:35:06;;;;;;;;;;;;;;;9.82;49.80;99069.59;4492632;31;35482;-64
2022/04/10 01:37:36;;;;;;;;;;;;;;;10.00;48.57;99066.25;4488194;31;33095;-64
2022/04/10 01:40:07;;;;;;;;;;;;;;;9.96;48.79;99070.16;4471921;32;32066;-66
2022/04/10 01:42:37;;;;;;;;;;;;;;;9.75;50.52;99071.91;4485443;31;32980;-64
2022/04/10 01:45:06;;;;;;;;;;;;;;;10.09;49.18;99071.81;4487034;31;33758;-64
2022/04/10 01:47:35;;;;;;;;;;;;;;;9.46;51.35;99074.28;4486509;31;32992;-66
2022/04/10 01:50:07;;;;;;;;;;;;;;;9.59;49.17;99076.81;4483862;31;32333;-65
2022/04/10 01:52:39;;;;;;;;;;;;;;;9.90;48.37;99086.69;4485793;31;33331;-67
2022/04/10 01:55:09;;;;;;;;;;;;;;;9.93;49.37;99072.25;4486611;31;33119;-63
2022/04/10 01:57:38;;;;;;;;;;;;;;;9.47;50.22;99076.84;4492348;31;34041;-65
2022/04/10 02:00:09;;;;;;;;;;;;;;;9.65;48.58;99061.13;4491275;31;32675;-65
2022/04/10 02:02:40;;;;;;;;;;;;;;;9.60;49.60;99074.03;4493138;31;32893;-65
2022/04/10 02:05:09;;;;;;;;;;;;;;;9.45;49.94;99073.44;4481523;31;35321;-68
2022/04/10 02:07:37;;;;;;;;;;;;;;;10.44;46.45;99066.19;4493106;31;35262;-63
2022/04/10 02:10:07;;;;;;;;;;;;;;;9.73;48.66;99077.41;4499473;31;32437;-68
2022/04/10 02:12:36;;;;;;;;;;;;;;;9.68;48.87;99073.41;4486784;31;35041;-64
2022/04/10 02:15:05;;;;;;;;;;;;;;;9.54;49.92;99072.72;4498978;31;33014;-64
2022/04/10 02:17:34;;;;;;;;;;;;;;;8.95;49.23;99075.66;4486770;31;34527;-63
2022/04/10 02:20:05;;;;;;;;;;;;;;;8.57;52.13;99083.97;4488186;31;33367;-65
2022/04/10 02:22:38;;;;;;;;;;;;;;;9.69;48.47;99081.28;4486404;31;34193;-65
2022/04/10 02:25:10;;;;;;;;;;;;;;;10.01;48.79;99089.31;4482759;31;35112;-65
2022/04/10 02:27:39;;;;;;;;;;;;;;;10.36;47.83;99096.25;4486520;31;34309;-66
2022/04/10 02:30:08;;;;;;;;;;;;;;;10.48;47.53;99102.41;4480013;32;32855;-64
2022/04/10 02:32:38;;;;;;;;;;;;;;;9.66;48.50;99102.94;4486562;31;32629;-64
2022/04/10 02:35:08;;;;;;;;;;;;;;;9.78;49.48;99117.09;4478599;31;37716;-64
2022/04/10 02:37:38;;;;;;;;;;;;;;;9.32;49.40;99115.47;4491088;31;33078;-63
2022/04/10 02:40:08;;;;;;;;;;;;;;;10.34;47.41;99103.59;4480675;31;32831;-63
2022/04/10 02:42:36;;;;;;;;;;;;;;;9.82;48.54;99113.19;4480557;31;32934;-63
2022/04/10 02:45:05;;;;;;;;;;;;;;;10.30;46.62;99106.63;4492489;31;35429;-64
2022/04/10 02:47:34;;;;;;;;;;;;;;;9.58;48.46;99113.38;4483984;31;34079;-63
2022/04/10 02:50:05;;;;;;;;;;;;;;;10.37;46.06;99116.72;4484651;31;32489;-64
2022/04/10 02:52:34;;;;;;;;;;;;;;;10.09;47.61;99117.28;4485159;31;34904;-62
2022/04/10 02:55:04;;;;;;;;;;;;;;;10.57;45.24;99116.84;4494488;31;35019;-64
2022/04/10 02:57:52;;;;;;;;;;;;;;;10.71;44.70;99113.84;4483768;31;34363;-64
2022/04/10 03:00:40;;;;;;;;;;;;;;;11.01;43.67;99123.75;4492440;31;31962;-65
2022/04/10 03:03:28;;;;;;;;;;;;;;;10.72;43.97;99121.75;4482295;31;33956;-64
2022/04/10 03:06:15;;;;;;;;;;;;;;;10.96;44.45;99134.84;4482064;31;32748;-64
2022/04/10 03:09:07;;;;;;;;;;;;;;;10.58;45.36;99138.13;4484598;31;34417;-66
2022/04/10 03:12:03;;;;;;;;;;;;;;;10.83;43.85;99136.88;4482541;31;32570;-67
2022/04/10 03:14:52;;;;;;;;;;;;;;;9.81;47.08;99148.91;4488144;31;32973;-64
2022/04/10 03:17:40;;;;;;;;;;;;;;;9.86;46.91;99154.75;4480734;31;34182;-64
2022/04/10 03:20:28;;;;;;;;;;;;;;;9.92;47.49;99154.25;4482597;31;35689;-64
2022/04/10 03:23:17;;;;;;;;;;;;;;;9.55;47.90;99161.72;4495523;31;33476;-65
2022/04/10 03:26:05;;;;;;;;;;;;;;;9.06;49.49;99157.56;4476540;31;34995;-64
2022/04/10 03:28:52;;;;;;;;;;;;;;;9.66;47.43;99156.38;4486369;31;34687;-64
2022/04/10 03:31:40;;;;;;;;;;;;;;;9.66;47.79;99169.72;4480198;32;34903;-64
2022/04/10 03:34:27;;;;;;;;;;;;;;;9.06;50.44;99162.91;4487996;31;34855;-64
2022/04/10 03:37:16;;;;;;;;;;;;;;;9.29;49.36;99164.63;4481884;31;32536;-68
2022/04/10 03:40:06;;;;;;;;;;;;;;;9.08;49.91;99166.28;4482624;31;34373;-64
2022/04/10 03:42:59;;;;;;;;;;;;;;;9.38;48.50;99186.25;4480140;31;33760;-68
2022/04/10 03:45:47;;;;;;;;;;;;;;;7.76;53.54;99178.81;4480569;31;33842;-65
2022/04/10 03:48:35;;;;;;;;;;;;;;;8.27;53.52;99183.13;4479761;32;34277;-63
2022/04/10 03:51:22;;;;;;;;;;;;;;;9.63;48.37;99185.13;4480915;31;34178;-64
2022/04/10 03:54:09;;;;;;;;;;;;;;;9.76;47.25;99178.72;4484378;31;33938;-64
2022/04/10 03:56:57;;;;;;;;;;;;;;;9.38;50.01;99183.59;4480793;31;32102;-64
2022/04/10 03:59:47;;;;;;;;;;;;;;;9.49;47.63;99191.59;4494525;31;33553;-64
2022/04/10 04:02:35;;;;;;;;;;;;;;;9.60;47.51;99194.28;4492729;31;34753;-64
2022/04/10 04:05:22;;;;;;;;;;;;;;;9.59;48.30;99197.88;4484898;31;34659;-64
2022/04/10 04:08:09;;;;;;;;;;;;;;;8.63;50.89;99192.87;4486491;31;36540;-63
2022/04/10 04:10:57;;;;;;;;;;;;;;;8.65;52.47;99198.09;4483185;31;34114;-64
2022/04/10 04:13:44;;;;;;;;;;;;;;;8.52;52.41;99201.69;4494542;31;35546;-65
2022/04/10 04:16:31;;;;;;;;;;;;;;;8.37;52.65;99202.78;4484825;31;32979;-64
2022/04/10 04:19:18;;;;;;;;;;;;;;;9.19;49.87;99208.19;4486580;31;32192;-65
2022/04/10 04:22:05;;;;;;;;;;;;;;;8.97;50.39;99215.19;4487922;31;33735;-65
2022/04/10 04:24:52;;;;;;;;;;;;;;;8.89;50.38;99214.91;4486193;31;34241;-65
2022/04/10 04:27:41;;;;;;;;;;;;;;;8.31;51.79;99208.56;4496489;31;33087;-63
2022/04/10 04:30:34;;;;;;;;;;;;;;;7.66;53.03;99209.75;4492380;31;32107;-64
2022/04/10 04:33:23;;;;;;;;;;;;;;;7.78;54.07;99211.53;4480283;31;33854;-65
2022/04/10 04:36:17;;;;;;;;;;;;;;;7.60;54.88;99219.00;4489466;31;33488;-63
2022/04/10 04:39:08;;;;;;;;;;;;;;;8.21;55.74;99223.56;4488203;31;32765;-63
2022/04/10 04:42:12;;;;;;;;;;;;;;;8.11;53.58;99232.22;4480502;31;32230;-63
2022/04/10 04:45:08;;;;;;;;;;;;;;;7.39;55.90;99224.06;4484546;31;33048;-64
2022/04/10 04:48:07;;;;;;;;;;;;;;;7.93;54.75;99234.44;4484210;31;33145;-63
2022/04/10 04:51:02;;;;;;;;;;;;;;;8.72;54.41;99234.03;4490824;31;34011;-65
2022/04/10 04:53:55;;;;;;;;;;;;;;;8.83;52.03;99232.25;4493378;31;32205;-68
2022/04/10 04:56:52;;;;;;;;;;;;;;;7.63;55.45;99242.78;4480432;31;34264;-65
2022/04/10 04:59:54;;;;;;;;;;;;;;;8.66;53.08;99240.66;4479559;31;33085;-65
2022/04/10 05:02:52;;;;;;;;;;;;;;;8.51;54.93;99252.50;4488769;31;35137;-67
2022/04/10 05:05:54;;;;;;;;;;;;;;;8.60;54.53;99254.47;4493099;31;32515;-67
2022/04/10 05:08:51;;;;;;;;;;;;;;;8.90;52.16;99261.16;4486285;31;34069;-65
2022/04/10 05:11:49;;;;;;;;;;;;;;;9.55;51.53;99265.91;4494708;31;32990;-65
2022/04/10 05:14:46;;;;;;;;;;;;;;;9.50;51.23;99271.63;4494365;31;32977;-69
2022/04/10 05:17:38;;;;;;;;;;;;;;;9.52;50.87;99276.84;4485109;31;32288;-69
2022/04/10 05:20:32;;;;;;;;;;;;;;;10.09;50.01;99286.56;4484891;31;33010;-66
2022/04/10 05:23:31;;;;;;;;;;;;;;;10.53;48.54;99279.50;4473412;31;34391;-70
2022/04/10 05:26:27;;;;;;;;;;;;;;;10.34;49.78;99285.47;4492051;31;34735;-67
2022/04/10 05:29:21;;;;;;;;;;;;;;;11.00;46.43;99289.91;4485437;31;32803;-70
2022/04/10 05:32:17;;;;;;;;;;;;;;;11.27;46.40;99295.62;4492540;31;32975;-69
2022/04/10 05:35:12;;;;;;;;;;;;;;;10.70;47.45;99292.31;4482873;31;33780;-67
2022/04/10 05:38:08;;;;;;;;;;;;;;;11.44;44.99;99294.19;4487147;31;34898;-66
2022/04/10 05:41:02;;;;;;;;;;;;;;;10.87;46.88;99298.09;4494420;31;31834;-67
2022/04/10 05:43:54;;;;;;;;;;;;;;;9.95;48.20;99301.06;4495365;31;35048;-67
2022/04/10 05:46:48;;;;;;;;;;;;;;;10.01;49.00;99305.88;4488106;31;34370;-66
2022/04/10 05:49:40;;;;;;;;;;;;;;;10.32;48.01;99308.81;4481756;32;33051;-67
2022/04/10 05:52:31;;;;;;;;;;;;;;;9.95;48.88;99316.22;4497966;31;33278;-68
2022/04/10 05:55:21;;;;;;;;;;;;;;;10.90;46.56;99313.91;4490791;31;34076;-66
2022/04/10 05:58:08;;;;;;;;;;;;;;;10.93;47.54;99319.00;4487766;31;34147;-68
2022/04/10 06:00:57;;;;;;;;;;;;;;;11.93;44.17;99321.28;4491023;31;33491;-67
2022/04/10 06:03:47;;;;;;;;;;;;;;;14.30;39.54;99317.41;4485689;31;32714;-67
2022/04/10 06:06:35;;;;;;;;;;;;;;;12.92;41.91;99324.97;4491898;31;35239;-67
2022/04/10 06:09:26;;;;;;;;;;;;;;;11.66;43.87;99317.31;4490137;31;33149;-67
2022/04/10 06:12:17;;;;;;;;;;;;;;;11.96;44.44;99318.34;4494860;31;33175;-67
2022/04/10 06:15:06;;;;;;;;;;;;;;;11.91;44.59;99323.25;4473879;31;32894;-67
2022/04/10 06:17:39;;;;;;;;;;;;;;;11.95;44.95;99322.87;4493636;31;34204;-68
2022/04/10 06:20:12;;;;;;;;;;;;;;;11.14;46.30;99325.28;4491483;31;34057;-68
2022/04/10 06:22:44;;;;;;;;;;;;;;;11.25;46.39;99329.72;4484776;31;34062;-70
2022/04/10 06:25:14;;;;;;;;;;;;;;;11.52;46.44;99320.31;4486196;31;34176;-67
2022/04/10 06:27:43;;;;;;;;;;;;;;;11.83;44.43;99323.88;4485523;31;33936;-68
2022/04/10 06:30:14;;;;;;;;;;;;;;;11.51;45.30;99323.97;4470469;32;34033;-67
2022/04/10 06:32:44;;;;;;;;;;;;;;;11.32;46.96;99325.53;4494671;31;35032;-69
2022/04/10 06:35:14;;;;;;;;;;;;;;;10.35;47.27;99343.34;4488543;31;33269;-67
2022/04/10 06:37:48;;;;;;;;;;;;;;;10.75;47.81;99344.63;4492215;31;34381;-66
2022/04/10 06:40:20;;;;;;;;;;;;;;;10.34;48.26;99348.84;4485474;31;32670;-66
2022/04/10 06:42:52;;;;;;;;;;;;;;;10.24;49.50;99354.00;4493372;31;33144;-72
2022/04/10 06:45:29;;;;;;;;;;;;;;;10.65;48.04;99347.19;4500213;31;32507;-68
2022/04/10 06:47:59;;;;;;;;;;;;;;;10.57;48.13;99353.19;4486077;31;33076;-67
2022/04/10 06:50:35;;;;;;;;;;;;;;;10.55;48.14;99354.28;4485366;31;33794;-67
2022/04/10 06:53:09;;;;;;;;;;;;;;;9.76;49.62;99363.13;4496036;31;34465;-67
2022/04/10 06:55:40;;;;;;;;;;;;;;;9.42;50.47;99354.16;4485524;31;34523;-67
2022/04/10 06:58:12;;;;;;;;;;;;;;;9.76;49.78;99362.28;4493576;31;32923;-66
2022/04/10 07:00:43;;;;;;;;;;;;;;;10.12;48.99;99366.56;4489230;31;34979;-66
2022/04/10 07:03:18;;;;;;;;;;;;;;;11.31;47.77;99364.03;4486387;31;32966;-69
2022/04/10 07:05:51;;;;;;;;;;;;;;;10.53;46.99;99373.16;4490931;31;32839;-66
2022/04/10 07:08:23;;;;;;;;;;;;;;;10.78;47.24;99374.66;4494931;31;34421;-66
2022/04/10 07:10:55;;;;;;;;;;;;;;;10.08;49.44;99370.44;4492482;31;33174;-67
2022/04/10 07:13:24;;;;;;;;;;;;;;;10.11;48.26;99380.91;4483205;31;34085;-63
2022/04/10 07:15:57;;;;;;;;;;;;;;;10.57;47.87;99384.44;4486078;31;32196;-66
2022/04/10 07:18:28;;;;;;;;;;;;;;;11.16;47.51;99384.06;4492968;31;32977;-66
2022/04/10 07:21:00;;;;;;;;;;;;;;;11.91;45.56;99383.13;4499556;31;34424;-66
2022/04/10 07:23:45;;;;;;;;;;;;;;;11.60;46.50;99384.84;4490012;31;34009;-68
2022/04/10 07:26:18;;;;;;;;;;;;;;;11.49;46.05;99391.09;4497438;31;34040;-67
2022/04/10 07:28:49;;;;;;;;;;;;;;;10.81;47.14;99393.16;4487234;31;33191;-66
2022/04/10 07:31:23;;;;;;;;;;;;;;;10.43;47.17;99394.44;4493061;31;35233;-66
2022/04/10 07:33:54;;;;;;;;;;;;;;;10.71;47.78;99406.44;4491713;31;32923;-67
2022/04/10 07:36:31;;;;;;;;;;;;;;;11.55;45.33;99392.41;4499535;31;34511;-67
2022/04/10 07:39:04;;;;;;;;;;;;;;;11.29;45.89;99400.81;4483267;31;32820;-66
2022/04/10 07:41:38;;;;;;;;;;;;;;;11.26;46.31;99398.37;4485036;31;33247;-67
2022/04/10 07:44:10;;;;;;;;;;;;;;;11.57;46.21;99402.03;4483003;31;32817;-68
2022/04/10 07:49:30;;;;;;;;;;;;;;;11.91;46.05;99403.69;4489975;31;33654;-67
2022/04/10 07:52:03;;;;;;;;;;;;;;;11.97;45.39;99398.66;4481660;31;34598;-67
2022/04/10 07:54:37;;;;;;;;;;;;;;;12.25;44.84;99409.69;4483910;31;34199;-66
2022/04/10 07:57:07;;;;;;;;;;;;;;;12.37;45.31;99410.47;4484365;31;33129;-67
2022/04/10 07:59:38;;;;;;;;;;;;;;;12.85;42.21;99413.31;4487116;31;32820;-69
2022/04/10 08:02:10;;;;;;;;;;;;;;;12.38;43.59;99425.56;4493447;31;33417;-67
2022/04/10 08:04:41;;;;;;;;;;;;;;;13.19;42.26;99424.59;4486037;31;32139;-67
2022/04/10 08:07:14;;;;;;;;;;;;;;;13.12;43.26;99420.72;4481840;32;32242;-67
2022/04/10 08:09:50;;;;;;;;;;;;;;;13.25;41.03;99424.03;4485741;31;34118;-67
2022/04/10 08:12:20;;;;;;;;;;;;;;;12.70;43.44;99423.59;4495235;31;33758;-67
2022/04/10 08:14:52;;;;;;;;;;;;;;;12.91;42.28;99422.69;4492965;31;34049;-66
2022/04/10 08:17:24;;;;;;;;;;;;;;;13.83;41.92;99427.72;4469972;31;33383;-66
2022/04/10 08:19:55;;;;;;;;;;;;;;;13.52;41.75;99422.50;4497455;31;35270;-66
2022/04/10 08:22:26;;;;;;;;;;;;;;;13.54;41.40;99425.03;4490325;31;32791;-68
2022/04/10 08:24:56;;;;;;;;;;;;;;;14.38;38.93;99415.28;4496594;31;35133;-67
2022/04/10 08:27:31;;;;;;;;;;;;;;;14.07;38.61;99421.91;4497576;31;32081;-70
2022/04/10 08:30:01;;;;;;;;;;;;;;;14.26;37.59;99421.84;4492399;31;32740;-67
2022/04/10 08:32:36;;;;;;;;;;;;;;;14.28;38.25;99414.44;4494088;31;34389;-67
2022/04/10 08:35:12;;;;;;;;;;;;;;;14.54;37.42;99422.78;4485802;31;34199;-65
2022/04/10 08:37:46;;;;;;;;;;;;;;;13.97;38.60;99419.22;4490727;31;32234;-66
2022/04/10 08:40:18;;;;;;;;;;;;;;;14.10;38.88;99422.44;4491927;31;33154;-67
2022/04/10 08:42:48;;;;;;;;;;;;;;;13.57;40.30;99425.59;4481800;32;33377;-67
2022/04/10 08:45:18;;;;;;;;;;;;;;;14.04;38.02;99425.72;4486984;31;33027;-67
2022/04/10 08:47:57;;;;;;;;;;;;;;;13.91;37.60;99422.47;4470435;31;34469;-67
2022/04/10 08:50:29;;;;;;;;;;;;;;;13.07;38.31;99433.75;4483354;31;33067;-67
2022/04/10 08:53:02;;;;;;;;;;;;;;;13.94;37.08;99443.72;4491843;31;33464;-72
2022/04/10 08:55:31;;;;;;;;;;;;;;;13.73;38.54;99444.72;4494012;31;34029;-67
2022/04/10 08:58:04;;;;;;;;;;;;;;;13.85;37.36;99448.09;4487423;31;34423;-66
2022/04/10 09:00:33;;;;;;;;;;;;;;;13.94;37.99;99435.66;4489439;31;33852;-66
2022/04/10 09:03:05;;;;;;;;;;;;;;;14.33;38.19;99443.66;4485776;31;32982;-67
2022/04/10 09:05:33;;;;;;;;;;;;;;;14.18;36.01;99438.69;4484784;31;33702;-67
2022/04/10 09:08:06;;;;;;;;;;;;;;;13.79;36.14;99443.28;4488036;31;32538;-68
2022/04/10 09:10:57;;;;;;;;;;;;;;;14.24;36.58;99434.59;4486098;31;32718;-69
2022/04/10 09:13:36;;;;;;;;;;;;;;;14.16;37.50;99438.03;4496009;31;34040;-69
2022/04/10 09:16:22;;;;;;;;;;;;;;;13.86;37.80;99430.13;4496297;31;34848;-67
2022/04/10 09:18:56;;;;;;;;;;;;;;;14.39;36.43;99434.97;4487992;31;32132;-67
2022/04/10 09:21:29;;;;;;;;;;;;;;;14.37;37.41;99429.72;4493099;31;34109;-68
2022/04/10 09:24:03;;;;;;;;;;;;;;;14.20;36.65;99436.72;4485236;31;34141;-71
2022/04/10 09:26:55;;;;;;;;;;;;;;;13.92;36.45;99411.56;4488843;31;34002;-72
2022/04/10 09:29:29;;;;;;;;;;;;;;;15.02;35.39;99434.28;4492598;31;32323;-68
2022/04/10 09:32:05;;;;;;;;;;;;;;;14.29;35.60;99432.31;4492530;31;33102;-67
2022/04/10 09:34:39;;;;;;;;;;;;;;;14.20;35.36;99431.34;4463868;32;33678;-67
2022/04/10 09:37:27;;;;;;;;;;;;;;;14.37;35.98;99435.13;4475197;31;32451;-69
2022/04/10 09:40:20;;;;;;;;;;;;;;;14.06;35.85;99442.56;4484439;31;32135;-67
2022/04/10 09:42:51;;;;;;;;;;;;;;;14.48;35.49;99433.22;4479841;31;32967;-68
2022/04/10 09:45:28;;;;;;;;;;;;;;;14.63;35.65;99435.34;4482958;31;34108;-69
2022/04/10 09:48:32;;;;;;;;;;;;;;;13.67;35.02;99447.97;4484870;31;33268;-67
2022/04/10 09:51:06;;;;;;;;;;;;;;;14.21;35.11;99446.50;4465337;31;33411;-66
2022/04/10 09:53:39;;;;;;;;;;;;;;;14.34;34.71;99442.63;4492705;31;34371;-66
2022/04/10 09:56:11;;;;;;;;;;;;;;;13.75;36.67;99445.44;4496198;31;33453;-66
2022/04/10 09:58:43;;;;;;;;;;;;;;;14.61;36.20;99436.50;4485271;31;35179;-66
2022/04/10 10:01:19;;;;;;;;;;;;;;;14.53;35.53;99439.91;4491885;31;32021;-67
2022/04/10 10:03:57;;;;;;;;;;;;;;;14.99;35.23;99456.16;4472917;31;35215;-66
2022/04/10 10:06:29;;;;;;;;;;;;;;;14.67;34.32;99438.59;4483279;31;35541;-68
2022/04/10 10:09:04;;;;;;;;;;;;;;;14.31;36.96;99448.31;4492693;31;33056;-67
2022/04/10 10:11:35;;;;;;;;;;;;;;;14.81;34.53;99442.66;4471002;31;32147;-68
2022/04/10 10:14:10;;;;;;;;;;;;;;;14.47;34.54;99442.31;4483904;31;33001;-69
2022/04/10 10:16:40;;;;;;;;;;;;;;;14.56;34.03;99444.16;4479579;31;32614;-67
2022/04/10 10:19:13;;;;;;;;;;;;;;;14.43;34.83;99444.47;4480005;31;33305;-66
2022/04/10 10:21:45;;;;;;;;;;;;;;;14.49;34.82;99440.34;4491897;31;33281;-67
2022/04/10 10:24:15;;;;;;;;;;;;;;;14.48;35.18;99442.19;4487484;31;33463;-66
2022/04/10 10:27:09;;;;;;;;;;;;;;;14.56;35.04;99436.94;4496248;31;33563;-66
2022/04/10 10:30:00;;;;;;;;;;;;;;;15.41;33.45;99445.69;4462787;31;33674;-67
2022/04/10 10:32:40;;;;;;;;;;;;;;;15.04;33.08;99449.31;4457311;31;31736;-67
2022/04/10 10:35:13;;;;;;;;;;;;;;;15.16;33.63;99446.44;4472129;31;32957;-67
2022/04/10 10:37:50;;;;;;;;;;;;;;;14.80;35.03;99443.63;4473716;31;33199;-67
2022/04/10 10:40:29;;;;;;;;;;;;;;;15.35;33.98;99446.31;4483557;32;33069;-67
2022/04/10 10:43:04;;;;;;;;;;;;;;;15.13;34.45;99455.66;4482290;31;31734;-67
2022/04/10 10:45:44;;;;;;;;;;;;;;;15.64;32.47;99447.94;4487741;31;34837;-67
2022/04/10 10:48:38;;;;;;;;;;;;;;;16.11;32.50;99447.69;4490856;31;33263;-68
2022/04/10 10:51:09;;;;;;;;;;;;;;;15.04;33.79;99454.72;4490398;31;34274;-66
2022/04/10 10:53:43;;;;;;;;;;;;;;;15.52;33.77;99460.81;4484465;31;32159;-66
2022/04/10 10:56:19;;;;;;;;;;;;;;;15.58;33.74;99438.59;4471928;31;33693;-66
2022/04/10 10:59:21;;;;;;;;;;;;;;;15.72;31.59;99448.88;4494126;31;33446;-66
2022/04/10 11:01:50;;;;;;;;;;;;;;;14.93;33.44;99443.28;4484528;31;32616;-66
2022/04/10 11:04:20;;;;;;;;;;;;;;;15.02;34.57;99445.91;4483797;31;33218;-66
2022/04/10 11:06:53;;;;;;;;;;;;;;;15.22;33.25;99448.53;4486918;31;33899;-67
2022/04/10 11:09:32;;;;;;;;;;;;;;;14.54;33.74;99444.31;4497896;31;34469;-67
2022/04/10 11:12:12;;;;;;;;;;;;;;;14.77;33.68;99436.72;4491402;31;34559;-66
2022/04/10 11:14:45;;;;;;;;;;;;;;;14.19;34.07;99431.50;4475282;31;32353;-66
2022/04/10 11:17:26;;;;;;;;;;;;;;;14.81;34.51;99440.78;4496850;31;34262;-66
2022/04/10 11:20:02;;;;;;;;;;;;;;;15.09;33.37;99444.34;4487120;31;34325;-68
2022/04/10 11:22:36;;;;;;;;;;;;;;;14.65;32.82;99454.91;4464786;31;32620;-70
2022/04/10 11:25:08;;;;;;;;;;;;;;;14.98;32.46;99436.44;4492227;31;32052;-65
2022/04/10 11:27:39;;;;;;;;;;;;;;;14.99;32.10;99446.25;4487562;31;35321;-67
2022/04/10 11:30:07;;;;;;;;;;;;;;;15.11;31.80;99439.63;4486764;31;34866;-66
2022/04/10 11:32:46;;;;;;;;;;;;;;;14.65;32.43;99438.75;4494254;31;32662;-70
2022/04/10 11:35:18;;;;;;;;;;;;;;;14.85;31.27;99438.66;4469738;31;33315;-67
2022/04/10 11:37:50;;;;;;;;;;;;;;;14.41;31.22;99436.53;4490046;31;33716;-67
2022/04/10 11:40:19;;;;;;;;;;;;;;;14.80;31.74;99430.16;4489401;31;33920;-67
2022/04/10 11:42:48;;;;;;;;;;;;;;;14.70;32.14;99427.50;4472326;32;32396;-67
2022/04/10 11:45:17;;;;;;;;;;;;;;;14.58;30.97;99431.41;4469778;32;33173;-67
2022/04/10 11:47:47;;;;;;;;;;;;;;;15.06;31.11;99441.94;4487093;31;33053;-66
2022/04/10 11:50:17;;;;;;;;;;;;;;;14.60;31.20;99427.53;4480077;32;33775;-66
2022/04/10 11:52:55;;;;;;;;;;;;;;;14.80;31.16;99432.84;4492625;31;33896;-66
2022/04/10 11:55:30;;;;;;;;;;;;;;;14.73;31.69;99429.91;4487367;31;32058;-66
2022/04/10 11:57:59;;;;;;;;;;;;;;;14.99;30.20;99446.25;4484444;31;34338;-66
2022/04/10 12:00:28;;;;;;;;;;;;;;;14.70;32.45;99437.44;4491737;31;34872;-67
2022/04/10 12:02:57;;;;;;;;;;;;;;;14.49;30.40;99443.03;4478695;31;33894;-66
2022/04/10 12:05:30;;;;;;;;;;;;;;;14.51;31.11;99441.94;4486289;31;32158;-66
2022/04/10 12:07:59;;;;;;;;;;;;;;;14.79;32.57;99452.72;4495368;31;33742;-67
2022/04/10 12:10:29;;;;;;;;;;;;;;;15.45;31.21;99455.19;4487878;31;33526;-67
2022/04/10 12:12:57;;;;;;;;;;;;;;;15.46;31.13;99454.16;4474653;31;33660;-67
2022/04/10 12:15:26;;;;;;;;;;;;;;;14.99;30.20;99451.63;4472588;32;33244;-67
2022/04/10 12:18:09;;;;;;;;;;;;;;;14.83;30.95;99454.97;4489545;31;34109;-70
2022/04/10 12:20:39;;;;;;;;;;;;;;;14.73;30.50;99439.84;4478458;31;32789;-67
2022/04/10 12:23:21;;;;;;;;;;;;;;;14.30;29.85;99450.16;4481883;31;32983;-67
2022/04/10 12:25:50;;;;;;;;;;;;;;;14.17;31.12;99457.69;4491047;31;34211;-66
2022/04/10 12:28:18;;;;;;;;;;;;;;;14.63;30.38;99447.94;4495075;31;33030;-66
2022/04/10 12:30:47;;;;;;;;;;;;;;;14.81;30.84;99454.25;4474572;31;33005;-67
2022/04/10 12:33:18;;;;;;;;;;;;;;;15.00;30.64;99449.78;4482816;32;34150;-68
2022/04/10 12:35:48;;;;;;;;;;;;;;;14.50;31.36;99450.09;4485138;31;32633;-67
2022/04/10 12:38:16;;;;;;;;;;;;;;;13.97;33.33;99440.75;4484375;31;31685;-67
2022/04/10 12:40:46;;;;;;;;;;;;;;;14.64;30.32;99433.50;4492769;31;32569;-67
2022/04/10 12:43:13;;;;;;;;;;;;;;;15.00;30.50;99444.41;4487187;31;32794;-66
2022/04/10 12:45:43;;;;;;;;;;;;;;;15.07;30.56;99440.94;4487688;31;34453;-67
2022/04/10 12:48:21;;;;;;;;;;;;;;;14.76;28.73;99442.22;4489513;31;34011;-70
2022/04/10 12:51:03;;;;;;;;;;;;;;;14.80;28.22;99441.81;4475653;31;33083;-68
2022/04/10 12:53:32;;;;;;;;;;;;;;;14.48;29.37;99444.87;4469741;31;33263;-67
2022/04/10 12:56:02;;;;;;;;;;;;;;;14.97;30.17;99440.16;4487010;31;33635;-67
2022/04/10 12:58:43;;;;;;;;;;;;;;;15.28;30.95;99432.59;4497166;31;34345;-66
2022/04/10 13:01:43;;;;;;;;;;;;;;;15.00;29.42;99430.91;4483200;31;33147;-69
2022/04/10 13:04:11;;;;;;;;;;;;;;;14.96;29.14;99454.63;4447158;31;32888;-70
2022/04/10 13:06:46;;;;;;;;;;;;;;;15.21;29.28;99441.41;4476479;31;31922;-66
2022/04/10 13:09:15;;;;;;;;;;;;;;;15.34;28.22;99434.69;4487103;31;33982;-67
2022/04/10 13:11:44;;;;;;;;;;;;;;;14.59;30.71;99433.09;4494752;31;34436;-66
2022/04/10 13:14:13;;;;;;;;;;;;;;;14.51;31.06;99441.06;4486423;31;32908;-66
2022/04/10 13:16:42;;;;;;;;;;;;;;;14.84;30.90;99443.19;4493350;31;32985;-66
2022/04/10 13:19:17;;;;;;;;;;;;;;;14.90;31.82;99445.28;4482650;32;34997;-66
2022/04/10 13:21:46;;;;;;;;;;;;;;;15.27;32.09;99443.50;4470992;32;33189;-66
2022/04/10 13:24:15;;;;;;;;;;;;;;;15.10;28.01;99440.62;4481342;31;32928;-70
2022/04/10 13:26:43;;;;;;;;;;;;;;;14.92;27.37;99447.81;4484051;31;33222;-69
2022/04/10 13:29:12;;;;;;;;;;;;;;;14.40;27.18;99447.44;4486172;31;33877;-66
2022/04/10 13:31:43;;;;;;;;;;;;;;;14.57;29.08;99440.47;4470461;31;33346;-67
2022/04/10 13:34:10;;;;;;;;;;;;;;;15.66;27.74;99448.62;4485906;31;34282;-68
2022/04/10 13:36:44;;;;;;;;;;;;;;;15.12;29.98;99456.69;4488708;31;33340;-68
2022/04/10 13:39:14;;;;;;;;;;;;;;;14.88;30.09;99446.44;4482671;31;33770;-66